sensor_id;sensor_type;location;lat;lon;timestamp;P1;durP1;ratioP1;P2;durP2;ratioP2
2604;SDS011;1312;50.298;8.520;2024-02-16T00:02:11;11.37;;;10.57;;
2604;SDS011;1312;50.298;8.520;2024-02-16T00:04:41;12.40;;;11.50;;
2604;SDS011;1312;50.298;8.520;2024-02-16T00:07:09;14.00;;;12.83;;
2604;SDS011;1312;50.298;8.520;2024-02-16T00:09:38;11.77;;;11.00;;
2604;SDS011;1312;50.298;8.520;2024-02-16T00:12:07;10.83;;;10.27;;
2604;SDS011;1312;50.298;8.520;2024-02-16T00:14:36;10.80;;;10.20;;
2604;SDS011;1312;50.298;8.520;2024-02-16T00:17:04;11.10;;;10.40;;
2604;SDS011;1312;50.298;8.520;2024-02-16T00:19:33;10.53;;;10.03;;
2604;SDS011;1312;50.298;8.520;2024-02-16T00:22:02;10.70;;;10.10;;
2604;SDS011;1312;50.298;8.520;2024-02-16T00:24:30;11.57;;;10.87;;
2604;SDS011;1312;50.298;8.520;2024-02-16T00:26:59;11.57;;;10.77;;
2604;SDS011;1312;50.298;8.520;2024-02-16T00:29:29;10.90;;;10.30;;
2604;SDS011;1312;50.298;8.520;2024-02-16T00:31:57;11.37;;;10.70;;
2604;SDS011;1312;50.298;8.520;2024-02-16T00:34:26;4.30;;;4.00;;
2604;SDS011;1312;50.298;8.520;2024-02-16T00:36:54;4.37;;;3.97;;
2604;SDS011;1312;50.298;8.520;2024-02-16T00:39:22;4.20;;;3.80;;
2604;SDS011;1312;50.298;8.520;2024-02-16T00:41:51;4.43;;;4.03;;
2604;SDS011;1312;50.298;8.520;2024-02-16T00:44:19;4.13;;;3.73;;
2604;SDS011;1312;50.298;8.520;2024-02-16T00:46:49;3.87;;;3.57;;
2604;SDS011;1312;50.298;8.520;2024-02-16T00:49:17;4.97;;;4.10;;
2604;SDS011;1312;50.298;8.520;2024-02-16T00:51:47;6.67;;;3.90;;
2604;SDS011;1312;50.298;8.520;2024-02-16T00:54:16;4.60;;;4.20;;
2604;SDS011;1312;50.298;8.520;2024-02-16T00:56:45;5.30;;;4.20;;
2604;SDS011;1312;50.298;8.520;2024-02-16T00:59:13;5.17;;;3.90;;
2604;SDS011;1312;50.298;8.520;2024-02-16T01:01:41;5.20;;;4.80;;
2604;SDS011;1312;50.298;8.520;2024-02-16T01:04:11;6.33;;;5.40;;
2604;SDS011;1312;50.298;8.520;2024-02-16T01:06:39;5.57;;;5.10;;
2604;SDS011;1312;50.298;8.520;2024-02-16T01:09:08;5.30;;;4.80;;
2604;SDS011;1312;50.298;8.520;2024-02-16T01:11:40;5.07;;;4.67;;
2604;SDS011;1312;50.298;8.520;2024-02-16T01:14:08;4.87;;;4.47;;
2604;SDS011;1312;50.298;8.520;2024-02-16T01:16:36;6.23;;;5.60;;
2604;SDS011;1312;50.298;8.520;2024-02-16T01:19:04;6.40;;;6.00;;
2604;SDS011;1312;50.298;8.520;2024-02-16T01:21:35;6.20;;;5.70;;
2604;SDS011;1312;50.298;8.520;2024-02-16T01:24:03;5.93;;;5.53;;
2604;SDS011;1312;50.298;8.520;2024-02-16T01:26:33;6.17;;;5.57;;
2604;SDS011;1312;50.298;8.520;2024-02-16T01:29:02;9.27;;;5.00;;
2604;SDS011;1312;50.298;8.520;2024-02-16T01:31:31;5.10;;;4.60;;
2604;SDS011;1312;50.298;8.520;2024-02-16T01:33:59;5.07;;;4.67;;
2604;SDS011;1312;50.298;8.520;2024-02-16T01:36:28;4.93;;;4.60;;
2604;SDS011;1312;50.298;8.520;2024-02-16T01:38:58;5.53;;;5.03;;
2604;SDS011;1312;50.298;8.520;2024-02-16T01:41:26;5.60;;;5.10;;
2604;SDS011;1312;50.298;8.520;2024-02-16T01:43:54;4.50;;;4.10;;
2604;SDS011;1312;50.298;8.520;2024-02-16T01:46:22;4.53;;;4.13;;
2604;SDS011;1312;50.298;8.520;2024-02-16T01:48:52;4.07;;;3.77;;
2604;SDS011;1312;50.298;8.520;2024-02-16T01:51:21;5.10;;;4.60;;
2604;SDS011;1312;50.298;8.520;2024-02-16T01:53:51;4.77;;;4.23;;
2604;SDS011;1312;50.298;8.520;2024-02-16T01:56:23;6.97;;;4.50;;
2604;SDS011;1312;50.298;8.520;2024-02-16T01:58:53;13.77;;;4.97;;
2604;SDS011;1312;50.298;8.520;2024-02-16T02:01:21;10.93;;;10.13;;
2604;SDS011;1312;50.298;8.520;2024-02-16T02:03:49;11.10;;;10.40;;
2604;SDS011;1312;50.298;8.520;2024-02-16T02:06:17;11.50;;;10.50;;
2604;SDS011;1312;50.298;8.520;2024-02-16T02:08:46;11.63;;;10.73;;
2604;SDS011;1312;50.298;8.520;2024-02-16T02:11:14;11.17;;;10.37;;
2604;SDS011;1312;50.298;8.520;2024-02-16T02:13:44;12.17;;;11.27;;
2604;SDS011;1312;50.298;8.520;2024-02-16T02:16:12;10.73;;;10.13;;
2604;SDS011;1312;50.298;8.520;2024-02-16T02:18:41;10.70;;;10.10;;
2604;SDS011;1312;50.298;8.520;2024-02-16T02:21:10;11.10;;;10.50;;
2604;SDS011;1312;50.298;8.520;2024-02-16T02:23:41;10.87;;;10.27;;
2604;SDS011;1312;50.298;8.520;2024-02-16T02:26:09;10.93;;;10.33;;
2604;SDS011;1312;50.298;8.520;2024-02-16T02:28:38;11.17;;;10.43;;
2604;SDS011;1312;50.298;8.520;2024-02-16T02:31:06;11.50;;;10.80;;
2604;SDS011;1312;50.298;8.520;2024-02-16T02:33:35;11.63;;;10.70;;
2604;SDS011;1312;50.298;8.520;2024-02-16T02:36:02;10.60;;;9.97;;
2604;SDS011;1312;50.298;8.520;2024-02-16T02:38:31;11.00;;;10.40;;
2604;SDS011;1312;50.298;8.520;2024-02-16T02:41:01;10.50;;;9.90;;
2604;SDS011;1312;50.298;8.520;2024-02-16T02:43:33;10.40;;;9.90;;
2604;SDS011;1312;50.298;8.520;2024-02-16T02:46:02;10.80;;;10.20;;
2604;SDS011;1312;50.298;8.520;2024-02-16T02:48:30;10.90;;;10.20;;
2604;SDS011;1312;50.298;8.520;2024-02-16T02:50:58;10.83;;;9.90;;
2604;SDS011;1312;50.298;8.520;2024-02-16T02:53:27;10.97;;;9.93;;
2604;SDS011;1312;50.298;8.520;2024-02-16T02:55:56;10.70;;;10.00;;
2604;SDS011;1312;50.298;8.520;2024-02-16T02:58:26;10.43;;;9.93;;
2604;SDS011;1312;50.298;8.520;2024-02-16T03:00:54;9.90;;;9.30;;
2604;SDS011;1312;50.298;8.520;2024-02-16T03:03:23;10.80;;;10.00;;
2604;SDS011;1312;50.298;8.520;2024-02-16T03:05:51;8.83;;;8.27;;
2604;SDS011;1312;50.298;8.520;2024-02-16T03:08:20;4.07;;;3.70;;
2604;SDS011;1312;50.298;8.520;2024-02-16T03:10:48;3.83;;;3.53;;
2604;SDS011;1312;50.298;8.520;2024-02-16T03:13:16;3.57;;;3.17;;
2604;SDS011;1312;50.298;8.520;2024-02-16T03:15:46;6.57;;;4.73;;
2604;SDS011;1312;50.298;8.520;2024-02-16T03:18:14;3.83;;;3.53;;
2604;SDS011;1312;50.298;8.520;2024-02-16T03:20:43;4.93;;;3.67;;
2604;SDS011;1312;50.298;8.520;2024-02-16T03:23:15;3.40;;;3.10;;
2604;SDS011;1312;50.298;8.520;2024-02-16T03:25:44;4.50;;;3.87;;
2604;SDS011;1312;50.298;8.520;2024-02-16T03:28:12;4.00;;;3.70;;
2604;SDS011;1312;50.298;8.520;2024-02-16T03:30:42;3.93;;;3.63;;
2604;SDS011;1312;50.298;8.520;2024-02-16T03:33:11;4.90;;;3.60;;
2604;SDS011;1312;50.298;8.520;2024-02-16T03:35:40;3.73;;;3.43;;
2604;SDS011;1312;50.298;8.520;2024-02-16T03:38:08;4.83;;;4.33;;
2604;SDS011;1312;50.298;8.520;2024-02-16T03:40:36;3.23;;;2.93;;
2604;SDS011;1312;50.298;8.520;2024-02-16T03:43:05;3.87;;;3.47;;
2604;SDS011;1312;50.298;8.520;2024-02-16T03:45:33;3.70;;;3.40;;
2604;SDS011;1312;50.298;8.520;2024-02-16T03:48:01;5.30;;;3.50;;
2604;SDS011;1312;50.298;8.520;2024-02-16T03:50:33;4.40;;;3.60;;
2604;SDS011;1312;50.298;8.520;2024-02-16T03:53:01;3.63;;;3.33;;
2604;SDS011;1312;50.298;8.520;2024-02-16T03:55:30;3.40;;;3.20;;
2604;SDS011;1312;50.298;8.520;2024-02-16T03:58:02;4.10;;;3.70;;
2604;SDS011;1312;50.298;8.520;2024-02-16T04:00:31;4.60;;;4.20;;
2604;SDS011;1312;50.298;8.520;2024-02-16T04:03:00;4.80;;;4.43;;
2604;SDS011;1312;50.298;8.520;2024-02-16T04:05:30;4.20;;;3.90;;
2604;SDS011;1312;50.298;8.520;2024-02-16T04:08:02;4.20;;;3.90;;
2604;SDS011;1312;50.298;8.520;2024-02-16T04:10:32;4.30;;;4.00;;
2604;SDS011;1312;50.298;8.520;2024-02-16T04:13:00;4.70;;;4.20;;
2604;SDS011;1312;50.298;8.520;2024-02-16T04:15:29;4.43;;;4.13;;
2604;SDS011;1312;50.298;8.520;2024-02-16T04:17:58;5.43;;;5.03;;
2604;SDS011;1312;50.298;8.520;2024-02-16T04:20:26;5.73;;;5.10;;
2604;SDS011;1312;50.298;8.520;2024-02-16T04:22:55;5.60;;;4.73;;
2604;SDS011;1312;50.298;8.520;2024-02-16T04:25:24;5.70;;;5.13;;
2604;SDS011;1312;50.298;8.520;2024-02-16T04:27:53;5.60;;;5.20;;
2604;SDS011;1312;50.298;8.520;2024-02-16T04:30:21;5.93;;;5.17;;
2604;SDS011;1312;50.298;8.520;2024-02-16T04:32:49;5.23;;;4.83;;
2604;SDS011;1312;50.298;8.520;2024-02-16T04:35:18;5.00;;;4.60;;
2604;SDS011;1312;50.298;8.520;2024-02-16T04:37:46;5.40;;;5.03;;
2604;SDS011;1312;50.298;8.520;2024-02-16T04:40:14;5.60;;;5.20;;
2604;SDS011;1312;50.298;8.520;2024-02-16T04:42:44;5.63;;;5.23;;
2604;SDS011;1312;50.298;8.520;2024-02-16T04:45:13;5.23;;;4.90;;
2604;SDS011;1312;50.298;8.520;2024-02-16T04:47:41;5.67;;;5.23;;
2604;SDS011;1312;50.298;8.520;2024-02-16T04:50:10;5.67;;;5.17;;
2604;SDS011;1312;50.298;8.520;2024-02-16T04:52:38;5.43;;;4.93;;
2604;SDS011;1312;50.298;8.520;2024-02-16T04:55:07;5.87;;;5.47;;
2604;SDS011;1312;50.298;8.520;2024-02-16T04:57:36;5.80;;;5.50;;
2604;SDS011;1312;50.298;8.520;2024-02-16T05:00:06;5.50;;;5.10;;
2604;SDS011;1312;50.298;8.520;2024-02-16T05:02:36;5.80;;;5.40;;
2604;SDS011;1312;50.298;8.520;2024-02-16T05:05:05;5.10;;;4.80;;
2604;SDS011;1312;50.298;8.520;2024-02-16T05:07:33;5.40;;;5.00;;
2604;SDS011;1312;50.298;8.520;2024-02-16T05:10:03;4.77;;;4.33;;
2604;SDS011;1312;50.298;8.520;2024-02-16T05:12:32;4.93;;;4.53;;
2604;SDS011;1312;50.298;8.520;2024-02-16T05:15:01;4.70;;;4.20;;
2604;SDS011;1312;50.298;8.520;2024-02-16T05:17:31;6.03;;;5.53;;
2604;SDS011;1312;50.298;8.520;2024-02-16T05:19:59;8.17;;;7.57;;
2604;SDS011;1312;50.298;8.520;2024-02-16T05:22:28;5.73;;;5.27;;
2604;SDS011;1312;50.298;8.520;2024-02-16T05:24:56;6.10;;;5.50;;
2604;SDS011;1312;50.298;8.520;2024-02-16T05:27:25;7.27;;;6.57;;
2604;SDS011;1312;50.298;8.520;2024-02-16T05:29:53;6.37;;;5.80;;
2604;SDS011;1312;50.298;8.520;2024-02-16T05:32:21;7.80;;;6.83;;
2604;SDS011;1312;50.298;8.520;2024-02-16T05:34:51;7.60;;;6.90;;
2604;SDS011;1312;50.298;8.520;2024-02-16T05:37:21;6.67;;;5.80;;
2604;SDS011;1312;50.298;8.520;2024-02-16T05:39:50;5.77;;;5.17;;
2604;SDS011;1312;50.298;8.520;2024-02-16T05:42:26;6.03;;;5.43;;
2604;SDS011;1312;50.298;8.520;2024-02-16T05:44:54;5.97;;;5.20;;
2604;SDS011;1312;50.298;8.520;2024-02-16T05:47:23;6.07;;;5.13;;
2604;SDS011;1312;50.298;8.520;2024-02-16T05:49:53;5.47;;;4.93;;
2604;SDS011;1312;50.298;8.520;2024-02-16T05:52:21;5.00;;;4.50;;
2604;SDS011;1312;50.298;8.520;2024-02-16T05:54:49;6.20;;;5.60;;
2604;SDS011;1312;50.298;8.520;2024-02-16T05:57:18;7.33;;;6.60;;
2604;SDS011;1312;50.298;8.520;2024-02-16T05:59:46;6.80;;;6.00;;
2604;SDS011;1312;50.298;8.520;2024-02-16T06:02:18;6.87;;;6.23;;
2604;SDS011;1312;50.298;8.520;2024-02-16T06:04:46;6.87;;;6.17;;
2604;SDS011;1312;50.298;8.520;2024-02-16T06:07:17;4.33;;;3.90;;
2604;SDS011;1312;50.298;8.520;2024-02-16T06:09:46;6.70;;;5.70;;
2604;SDS011;1312;50.298;8.520;2024-02-16T06:12:14;5.07;;;4.67;;
2604;SDS011;1312;50.298;8.520;2024-02-16T06:14:43;6.43;;;5.93;;
2604;SDS011;1312;50.298;8.520;2024-02-16T06:17:11;4.40;;;4.07;;
2604;SDS011;1312;50.298;8.520;2024-02-16T06:19:40;4.23;;;3.83;;
2604;SDS011;1312;50.298;8.520;2024-02-16T06:22:09;4.10;;;3.70;;
2604;SDS011;1312;50.298;8.520;2024-02-16T06:24:39;4.13;;;3.83;;
2604;SDS011;1312;50.298;8.520;2024-02-16T06:27:07;5.27;;;4.20;;
2604;SDS011;1312;50.298;8.520;2024-02-16T06:29:36;4.57;;;4.17;;
2604;SDS011;1312;50.298;8.520;2024-02-16T06:32:04;4.80;;;4.30;;
2604;SDS011;1312;50.298;8.520;2024-02-16T06:34:32;4.53;;;4.10;;
2604;SDS011;1312;50.298;8.520;2024-02-16T06:37:01;4.83;;;4.23;;
2604;SDS011;1312;50.298;8.520;2024-02-16T06:39:29;4.40;;;3.90;;
2604;SDS011;1312;50.298;8.520;2024-02-16T06:41:59;4.50;;;4.10;;
2604;SDS011;1312;50.298;8.520;2024-02-16T06:44:28;5.77;;;4.10;;
2604;SDS011;1312;50.298;8.520;2024-02-16T06:46:56;4.10;;;3.80;;
2604;SDS011;1312;50.298;8.520;2024-02-16T06:49:24;4.40;;;4.10;;
2604;SDS011;1312;50.298;8.520;2024-02-16T06:51:53;3.60;;;3.30;;
2604;SDS011;1312;50.298;8.520;2024-02-16T06:54:21;4.40;;;4.00;;
2604;SDS011;1312;50.298;8.520;2024-02-16T06:56:51;4.10;;;3.80;;
2604;SDS011;1312;50.298;8.520;2024-02-16T06:59:21;3.80;;;3.50;;
2604;SDS011;1312;50.298;8.520;2024-02-16T07:01:49;4.67;;;4.27;;
2604;SDS011;1312;50.298;8.520;2024-02-16T07:04:17;4.37;;;3.97;;
2604;SDS011;1312;50.298;8.520;2024-02-16T07:06:46;5.90;;;5.17;;
2604;SDS011;1312;50.298;8.520;2024-02-16T07:09:14;7.63;;;6.07;;
2604;SDS011;1312;50.298;8.520;2024-02-16T07:11:42;5.67;;;5.07;;
2604;SDS011;1312;50.298;8.520;2024-02-16T07:14:15;5.40;;;4.90;;
2604;SDS011;1312;50.298;8.520;2024-02-16T07:16:45;5.90;;;4.90;;
2604;SDS011;1312;50.298;8.520;2024-02-16T07:19:13;8.93;;;6.50;;
2604;SDS011;1312;50.298;8.520;2024-02-16T07:21:42;6.63;;;5.90;;
2604;SDS011;1312;50.298;8.520;2024-02-16T07:24:10;7.10;;;6.03;;
2604;SDS011;1312;50.298;8.520;2024-02-16T07:26:38;5.50;;;4.83;;
2604;SDS011;1312;50.298;8.520;2024-02-16T07:29:08;4.90;;;4.50;;
2604;SDS011;1312;50.298;8.520;2024-02-16T07:31:39;5.90;;;5.40;;
2604;SDS011;1312;50.298;8.520;2024-02-16T07:34:09;6.30;;;5.70;;
2604;SDS011;1312;50.298;8.520;2024-02-16T07:36:38;5.97;;;3.83;;
2604;SDS011;1312;50.298;8.520;2024-02-16T07:39:07;5.30;;;4.80;;
2604;SDS011;1312;50.298;8.520;2024-02-16T07:41:38;5.63;;;5.20;;
2604;SDS011;1312;50.298;8.520;2024-02-16T07:44:06;5.10;;;4.30;;
2604;SDS011;1312;50.298;8.520;2024-02-16T07:46:39;5.50;;;4.90;;
2604;SDS011;1312;50.298;8.520;2024-02-16T07:49:09;5.97;;;3.60;;
2604;SDS011;1312;50.298;8.520;2024-02-16T07:51:39;3.70;;;3.40;;
2604;SDS011;1312;50.298;8.520;2024-02-16T07:54:07;4.33;;;3.93;;
2604;SDS011;1312;50.298;8.520;2024-02-16T07:56:36;4.10;;;3.80;;
2604;SDS011;1312;50.298;8.520;2024-02-16T07:59:04;3.67;;;3.37;;
2604;SDS011;1312;50.298;8.520;2024-02-16T08:01:32;4.60;;;3.00;;
2604;SDS011;1312;50.298;8.520;2024-02-16T08:04:01;3.57;;;3.27;;
2604;SDS011;1312;50.298;8.520;2024-02-16T08:06:33;3.97;;;3.67;;
2604;SDS011;1312;50.298;8.520;2024-02-16T08:09:02;3.70;;;3.40;;
2604;SDS011;1312;50.298;8.520;2024-02-16T08:11:30;4.23;;;3.83;;
2604;SDS011;1312;50.298;8.520;2024-02-16T08:13:58;6.40;;;3.70;;
2604;SDS011;1312;50.298;8.520;2024-02-16T08:16:27;5.03;;;4.40;;
2604;SDS011;1312;50.298;8.520;2024-02-16T08:18:55;5.03;;;4.17;;
2604;SDS011;1312;50.298;8.520;2024-02-16T08:21:24;4.73;;;4.33;;
2604;SDS011;1312;50.298;8.520;2024-02-16T08:23:53;5.00;;;4.50;;
2604;SDS011;1312;50.298;8.520;2024-02-16T08:26:22;6.20;;;4.30;;
2604;SDS011;1312;50.298;8.520;2024-02-16T08:28:51;5.00;;;4.43;;
2604;SDS011;1312;50.298;8.520;2024-02-16T08:31:19;5.53;;;5.03;;
2604;SDS011;1312;50.298;8.520;2024-02-16T08:33:48;5.20;;;4.70;;
2604;SDS011;1312;50.298;8.520;2024-02-16T08:36:16;4.23;;;3.90;;
2604;SDS011;1312;50.298;8.520;2024-02-16T08:38:47;6.03;;;4.63;;
2604;SDS011;1312;50.298;8.520;2024-02-16T08:41:17;5.93;;;4.20;;
2604;SDS011;1312;50.298;8.520;2024-02-16T08:43:49;7.50;;;4.27;;
2604;SDS011;1312;50.298;8.520;2024-02-16T08:46:17;4.37;;;4.00;;
2604;SDS011;1312;50.298;8.520;2024-02-16T08:48:45;4.33;;;3.93;;
2604;SDS011;1312;50.298;8.520;2024-02-16T08:51:14;3.87;;;3.57;;
2604;SDS011;1312;50.298;8.520;2024-02-16T08:53:42;4.30;;;4.00;;
2604;SDS011;1312;50.298;8.520;2024-02-16T08:56:12;4.70;;;4.20;;
2604;SDS011;1312;50.298;8.520;2024-02-16T08:58:41;6.50;;;4.57;;
2604;SDS011;1312;50.298;8.520;2024-02-16T09:01:09;4.20;;;3.90;;
2604;SDS011;1312;50.298;8.520;2024-02-16T09:03:38;4.00;;;3.70;;
2604;SDS011;1312;50.298;8.520;2024-02-16T09:06:07;4.27;;;3.77;;
2604;SDS011;1312;50.298;8.520;2024-02-16T09:08:36;4.27;;;3.87;;
2604;SDS011;1312;50.298;8.520;2024-02-16T09:11:05;4.87;;;4.40;;
2604;SDS011;1312;50.298;8.520;2024-02-16T09:13:33;4.60;;;4.20;;
2604;SDS011;1312;50.298;8.520;2024-02-16T09:16:08;4.60;;;3.87;;
2604;SDS011;1312;50.298;8.520;2024-02-16T09:18:36;5.57;;;4.00;;
2604;SDS011;1312;50.298;8.520;2024-02-16T09:21:05;3.90;;;3.60;;
2604;SDS011;1312;50.298;8.520;2024-02-16T09:23:33;5.13;;;3.73;;
2604;SDS011;1312;50.298;8.520;2024-02-16T09:26:03;4.13;;;3.77;;
2604;SDS011;1312;50.298;8.520;2024-02-16T09:28:31;4.57;;;4.10;;
2604;SDS011;1312;50.298;8.520;2024-02-16T09:30:59;4.70;;;4.10;;
2604;SDS011;1312;50.298;8.520;2024-02-16T09:33:29;4.43;;;3.90;;
2604;SDS011;1312;50.298;8.520;2024-02-16T09:35:57;4.20;;;3.80;;
2604;SDS011;1312;50.298;8.520;2024-02-16T09:38:26;5.17;;;4.17;;
2604;SDS011;1312;50.298;8.520;2024-02-16T09:40:54;6.90;;;4.80;;
2604;SDS011;1312;50.298;8.520;2024-02-16T09:43:25;4.43;;;4.03;;
2604;SDS011;1312;50.298;8.520;2024-02-16T09:45:54;5.70;;;4.33;;
2604;SDS011;1312;50.298;8.520;2024-02-16T09:48:23;4.03;;;3.63;;
2604;SDS011;1312;50.298;8.520;2024-02-16T09:50:54;5.47;;;4.27;;
2604;SDS011;1312;50.298;8.520;2024-02-16T09:53:24;4.70;;;4.10;;
2604;SDS011;1312;50.298;8.520;2024-02-16T09:55:52;5.67;;;5.17;;
2604;SDS011;1312;50.298;8.520;2024-02-16T09:58:20;5.60;;;5.10;;
2604;SDS011;1312;50.298;8.520;2024-02-16T10:00:49;8.93;;;8.20;;
2604;SDS011;1312;50.298;8.520;2024-02-16T10:03:22;8.97;;;8.30;;
2604;SDS011;1312;50.298;8.520;2024-02-16T10:05:50;9.80;;;8.87;;
2604;SDS011;1312;50.298;8.520;2024-02-16T10:08:21;8.17;;;7.77;;
2604;SDS011;1312;50.298;8.520;2024-02-16T10:10:49;8.90;;;8.30;;
2604;SDS011;1312;50.298;8.520;2024-02-16T10:13:28;8.77;;;8.27;;
2604;SDS011;1312;50.298;8.520;2024-02-16T10:16:04;8.97;;;8.27;;
2604;SDS011;1312;50.298;8.520;2024-02-16T10:18:35;8.97;;;8.37;;
2604;SDS011;1312;50.298;8.520;2024-02-16T10:21:04;9.23;;;8.43;;
2604;SDS011;1312;50.298;8.520;2024-02-16T10:23:35;9.17;;;8.57;;
2604;SDS011;1312;50.298;8.520;2024-02-16T10:26:06;9.37;;;8.57;;
2604;SDS011;1312;50.298;8.520;2024-02-16T10:28:34;9.67;;;8.90;;
2604;SDS011;1312;50.298;8.520;2024-02-16T10:31:02;8.67;;;8.17;;
2604;SDS011;1312;50.298;8.520;2024-02-16T10:33:31;9.20;;;8.50;;
2604;SDS011;1312;50.298;8.520;2024-02-16T10:36:00;9.10;;;8.60;;
2604;SDS011;1312;50.298;8.520;2024-02-16T10:38:31;9.30;;;8.60;;
2604;SDS011;1312;50.298;8.520;2024-02-16T10:41:01;8.17;;;7.77;;
2604;SDS011;1312;50.298;8.520;2024-02-16T10:43:30;8.20;;;7.70;;
2604;SDS011;1312;50.298;8.520;2024-02-16T10:45:58;8.37;;;7.70;;
2604;SDS011;1312;50.298;8.520;2024-02-16T10:48:27;8.10;;;7.60;;
2604;SDS011;1312;50.298;8.520;2024-02-16T10:50:55;7.90;;;7.40;;
2604;SDS011;1312;50.298;8.520;2024-02-16T10:53:24;8.43;;;7.83;;
2604;SDS011;1312;50.298;8.520;2024-02-16T10:55:57;7.70;;;7.20;;
2604;SDS011;1312;50.298;8.520;2024-02-16T10:58:27;7.27;;;3.80;;
2604;SDS011;1312;50.298;8.520;2024-02-16T11:00:56;4.30;;;3.90;;
2604;SDS011;1312;50.298;8.520;2024-02-16T11:03:25;4.40;;;4.00;;
2604;SDS011;1312;50.298;8.520;2024-02-16T11:05:54;5.27;;;4.70;;
2604;SDS011;1312;50.298;8.520;2024-02-16T11:08:24;4.97;;;4.43;;
2604;SDS011;1312;50.298;8.520;2024-02-16T11:10:55;4.30;;;3.90;;
2604;SDS011;1312;50.298;8.520;2024-02-16T11:13:24;5.03;;;4.50;;
2604;SDS011;1312;50.298;8.520;2024-02-16T11:16:00;4.47;;;3.87;;
2604;SDS011;1312;50.298;8.520;2024-02-16T11:18:29;4.63;;;4.23;;
2604;SDS011;1312;50.298;8.520;2024-02-16T11:21:00;4.13;;;3.83;;
2604;SDS011;1312;50.298;8.520;2024-02-16T11:23:29;6.10;;;3.70;;
2604;SDS011;1312;50.298;8.520;2024-02-16T11:26:00;4.73;;;4.30;;
2604;SDS011;1312;50.298;8.520;2024-02-16T11:28:30;5.17;;;3.80;;
2604;SDS011;1312;50.298;8.520;2024-02-16T11:31:01;5.97;;;4.00;;
2604;SDS011;1312;50.298;8.520;2024-02-16T11:33:29;4.43;;;4.00;;
2604;SDS011;1312;50.298;8.520;2024-02-16T11:35:59;4.80;;;4.40;;
2604;SDS011;1312;50.298;8.520;2024-02-16T11:38:27;4.63;;;4.03;;
2604;SDS011;1312;50.298;8.520;2024-02-16T11:40:56;6.53;;;4.37;;
2604;SDS011;1312;50.298;8.520;2024-02-16T11:43:24;4.67;;;4.27;;
2604;SDS011;1312;50.298;8.520;2024-02-16T11:45:53;6.00;;;4.73;;
2604;SDS011;1312;50.298;8.520;2024-02-16T11:48:23;4.50;;;4.20;;
2604;SDS011;1312;50.298;8.520;2024-02-16T11:50:58;6.83;;;4.90;;
2604;SDS011;1312;50.298;8.520;2024-02-16T11:53:27;4.60;;;4.20;;
2604;SDS011;1312;50.298;8.520;2024-02-16T11:55:55;5.57;;;4.50;;
2604;SDS011;1312;50.298;8.520;2024-02-16T11:58:23;5.47;;;4.03;;
2604;SDS011;1312;50.298;8.520;2024-02-16T12:00:52;9.20;;;8.30;;
2604;SDS011;1312;50.298;8.520;2024-02-16T12:03:27;9.00;;;8.40;;
2604;SDS011;1312;50.298;8.520;2024-02-16T12:05:56;8.97;;;8.30;;
2604;SDS011;1312;50.298;8.520;2024-02-16T12:08:31;8.47;;;7.70;;
2604;SDS011;1312;50.298;8.520;2024-02-16T12:10:59;8.00;;;7.50;;
2604;SDS011;1312;50.298;8.520;2024-02-16T12:13:28;8.77;;;8.27;;
2604;SDS011;1312;50.298;8.520;2024-02-16T12:15:57;8.10;;;7.60;;
2604;SDS011;1312;50.298;8.520;2024-02-16T12:18:27;8.93;;;8.33;;
2604;SDS011;1312;50.298;8.520;2024-02-16T12:20:56;9.40;;;8.67;;
2604;SDS011;1312;50.298;8.520;2024-02-16T12:23:25;8.40;;;7.90;;
2604;SDS011;1312;50.298;8.520;2024-02-16T12:25:53;8.53;;;8.00;;
2604;SDS011;1312;50.298;8.520;2024-02-16T12:28:23;8.63;;;8.03;;
2604;SDS011;1312;50.298;8.520;2024-02-16T12:30:52;8.53;;;8.03;;
2604;SDS011;1312;50.298;8.520;2024-02-16T12:33:45;8.80;;;8.20;;
2604;SDS011;1312;50.298;8.520;2024-02-16T12:36:17;8.80;;;8.00;;
2604;SDS011;1312;50.298;8.520;2024-02-16T12:38:45;8.57;;;7.97;;
2604;SDS011;1312;50.298;8.520;2024-02-16T12:41:13;8.67;;;8.00;;
2604;SDS011;1312;50.298;8.520;2024-02-16T12:43:42;9.30;;;8.70;;
2604;SDS011;1312;50.298;8.520;2024-02-16T12:46:10;9.27;;;8.57;;
2604;SDS011;1312;50.298;8.520;2024-02-16T12:48:38;9.10;;;8.40;;
2604;SDS011;1312;50.298;8.520;2024-02-16T12:51:08;8.73;;;8.13;;
2604;SDS011;1312;50.298;8.520;2024-02-16T12:53:37;8.47;;;7.87;;
2604;SDS011;1312;50.298;8.520;2024-02-16T12:56:07;9.73;;;8.40;;
2604;SDS011;1312;50.298;8.520;2024-02-16T12:58:36;9.30;;;8.50;;
2604;SDS011;1312;50.298;8.520;2024-02-16T13:01:04;8.90;;;8.30;;
2604;SDS011;1312;50.298;8.520;2024-02-16T13:03:45;9.87;;;8.87;;
2604;SDS011;1312;50.298;8.520;2024-02-16T13:06:14;9.27;;;8.67;;
2604;SDS011;1312;50.298;8.520;2024-02-16T13:08:43;9.30;;;8.70;;
2604;SDS011;1312;50.298;8.520;2024-02-16T13:11:11;8.90;;;8.23;;
2604;SDS011;1312;50.298;8.520;2024-02-16T13:13:40;8.50;;;8.03;;
2604;SDS011;1312;50.298;8.520;2024-02-16T13:16:08;9.20;;;8.60;;
2604;SDS011;1312;50.298;8.520;2024-02-16T13:18:37;9.20;;;8.47;;
2604;SDS011;1312;50.298;8.520;2024-02-16T13:21:05;9.17;;;8.67;;
2604;SDS011;1312;50.298;8.520;2024-02-16T13:23:35;9.30;;;8.50;;
2604;SDS011;1312;50.298;8.520;2024-02-16T13:26:03;9.23;;;8.63;;
2604;SDS011;1312;50.298;8.520;2024-02-16T13:28:32;5.37;;;4.23;;
2604;SDS011;1312;50.298;8.520;2024-02-16T13:31:00;5.20;;;4.10;;
2604;SDS011;1312;50.298;8.520;2024-02-16T13:33:28;5.10;;;4.10;;
2604;SDS011;1312;50.298;8.520;2024-02-16T13:35:57;4.67;;;3.53;;
2604;SDS011;1312;50.298;8.520;2024-02-16T13:38:26;5.73;;;4.50;;
2604;SDS011;1312;50.298;8.520;2024-02-16T13:40:55;3.93;;;3.57;;
2604;SDS011;1312;50.298;8.520;2024-02-16T13:43:24;4.10;;;3.57;;
2604;SDS011;1312;50.298;8.520;2024-02-16T13:45:53;5.20;;;3.60;;
2604;SDS011;1312;50.298;8.520;2024-02-16T13:48:24;4.20;;;3.80;;
2604;SDS011;1312;50.298;8.520;2024-02-16T13:50:53;10.37;;;4.77;;
2604;SDS011;1312;50.298;8.520;2024-02-16T13:53:23;5.93;;;3.93;;
2604;SDS011;1312;50.298;8.520;2024-02-16T13:55:51;6.13;;;3.90;;
2604;SDS011;1312;50.298;8.520;2024-02-16T13:58:23;9.67;;;4.60;;
2604;SDS011;1312;50.298;8.520;2024-02-16T14:00:51;5.00;;;4.43;;
2604;SDS011;1312;50.298;8.520;2024-02-16T14:03:20;5.97;;;4.20;;
2604;SDS011;1312;50.298;8.520;2024-02-16T14:05:49;6.23;;;4.70;;
2604;SDS011;1312;50.298;8.520;2024-02-16T14:08:17;5.33;;;4.67;;
2604;SDS011;1312;50.298;8.520;2024-02-16T14:10:46;5.90;;;5.00;;
2604;SDS011;1312;50.298;8.520;2024-02-16T14:13:14;5.60;;;4.50;;
2604;SDS011;1312;50.298;8.520;2024-02-16T14:15:44;6.63;;;4.50;;
2604;SDS011;1312;50.298;8.520;2024-02-16T14:18:12;10.53;;;4.80;;
2604;SDS011;1312;50.298;8.520;2024-02-16T14:20:55;4.57;;;4.10;;
2604;SDS011;1312;50.298;8.520;2024-02-16T14:23:23;5.67;;;4.60;;
2604;SDS011;1312;50.298;8.520;2024-02-16T14:25:51;7.27;;;4.47;;
2604;SDS011;1312;50.298;8.520;2024-02-16T14:28:20;5.00;;;4.50;;
2604;SDS011;1312;50.298;8.520;2024-02-16T14:30:49;5.00;;;4.70;;
2604;SDS011;1312;50.298;8.520;2024-02-16T14:33:17;6.10;;;4.83;;
2604;SDS011;1312;50.298;8.520;2024-02-16T14:35:57;5.73;;;4.53;;
2604;SDS011;1312;50.298;8.520;2024-02-16T14:38:26;8.20;;;4.63;;
2604;SDS011;1312;50.298;8.520;2024-02-16T14:40:54;5.00;;;4.50;;
2604;SDS011;1312;50.298;8.520;2024-02-16T14:43:23;5.03;;;4.47;;
2604;SDS011;1312;50.298;8.520;2024-02-16T14:45:52;7.43;;;5.17;;
2604;SDS011;1312;50.298;8.520;2024-02-16T14:48:21;6.00;;;5.40;;
2604;SDS011;1312;50.298;8.520;2024-02-16T14:50:49;6.37;;;5.37;;
2604;SDS011;1312;50.298;8.520;2024-02-16T14:53:19;5.40;;;4.63;;
2604;SDS011;1312;50.298;8.520;2024-02-16T14:55:48;7.50;;;5.23;;
2604;SDS011;1312;50.298;8.520;2024-02-16T14:58:16;6.47;;;4.63;;
2604;SDS011;1312;50.298;8.520;2024-02-16T15:00:45;6.53;;;5.33;;
2604;SDS011;1312;50.298;8.520;2024-02-16T15:03:16;5.67;;;5.00;;
2604;SDS011;1312;50.298;8.520;2024-02-16T15:05:45;5.60;;;5.10;;
2604;SDS011;1312;50.298;8.520;2024-02-16T15:08:14;7.90;;;5.13;;
2604;SDS011;1312;50.298;8.520;2024-02-16T15:10:42;5.53;;;4.50;;
2604;SDS011;1312;50.298;8.520;2024-02-16T15:13:10;7.40;;;5.57;;
2604;SDS011;1312;50.298;8.520;2024-02-16T15:15:38;6.97;;;6.30;;
2604;SDS011;1312;50.298;8.520;2024-02-16T15:18:07;6.20;;;5.60;;
2604;SDS011;1312;50.298;8.520;2024-02-16T15:20:37;6.20;;;5.67;;
2604;SDS011;1312;50.298;8.520;2024-02-16T15:23:05;8.10;;;5.90;;
2604;SDS011;1312;50.298;8.520;2024-02-16T15:25:34;7.83;;;5.97;;